sensor_id;sensor_type;location;lat;lon;timestamp;temperature;humidity
57030;DHT22;42920;45.306;20.448;2022-08-19T00:01:23;716.90;1638.40
57030;DHT22;42920;45.306;20.448;2022-08-19T00:03:49;692.10;1638.40
57030;DHT22;42920;45.306;20.448;2022-08-19T00:06:15;692.00;1664.00
57030;DHT22;42920;45.306;20.448;2022-08-19T00:08:41;692.10;1664.00
57030;DHT22;42920;45.306;20.448;2022-08-19T00:11:07;691.90;1664.00
57030;DHT22;42920;45.306;20.448;2022-08-19T00:13:33;691.90;1664.00
57030;DHT22;42920;45.306;20.448;2022-08-19T00:15:59;691.90;1664.00
57030;DHT22;42920;45.306;20.448;2022-08-19T00:18:25;691.70;1689.60
57030;DHT22;42920;45.306;20.448;2022-08-19T00:20:51;691.60;1664.00
57030;DHT22;42920;45.306;20.448;2022-08-19T00:23:17;691.60;1664.00
57030;DHT22;42920;45.306;20.448;2022-08-19T00:25:42;691.60;1664.00
57030;DHT22;42920;45.306;20.448;2022-08-19T00:28:08;691.60;1664.00
57030;DHT22;42920;45.306;20.448;2022-08-19T00:30:34;691.50;1664.00
57030;DHT22;42920;45.306;20.448;2022-08-19T00:33:00;691.50;1664.00
57030;DHT22;42920;45.306;20.448;2022-08-19T00:35:25;691.50;1664.00
57030;DHT22;42920;45.306;20.448;2022-08-19T00:37:53;691.40;1664.00
57030;DHT22;42920;45.306;20.448;2022-08-19T00:40:19;691.70;1664.00
57030;DHT22;42920;45.306;20.448;2022-08-19T00:42:45;691.50;1664.00
57030;DHT22;42920;45.306;20.448;2022-08-19T00:45:23;691.50;1664.00
57030;DHT22;42920;45.306;20.448;2022-08-19T00:47:49;691.60;1664.00
57030;DHT22;42920;45.306;20.448;2022-08-19T00:50:18;691.50;1664.00
57030;DHT22;42920;45.306;20.448;2022-08-19T00:52:47;691.40;1664.00
57030;DHT22;42920;45.306;20.448;2022-08-19T00:55:23;691.30;1664.00
57030;DHT22;42920;45.306;20.448;2022-08-19T00:58:11;691.30;1664.00
57030;DHT22;42920;45.306;20.448;2022-08-19T01:00:38;691.30;1664.00
57030;DHT22;42920;45.306;20.448;2022-08-19T01:03:09;691.30;1664.00
57030;DHT22;42920;45.306;20.448;2022-08-19T01:05:36;691.30;1664.00
57030;DHT22;42920;45.306;20.448;2022-08-19T01:08:05;691.20;1689.60
57030;DHT22;42920;45.306;20.448;2022-08-19T01:10:36;666.50;1689.60
57030;DHT22;42920;45.306;20.448;2022-08-19T01:13:03;666.50;1689.60
57030;DHT22;42920;45.306;20.448;2022-08-19T01:15:33;691.20;1689.60
57030;DHT22;42920;45.306;20.448;2022-08-19T01:18:06;691.20;1664.00
57030;DHT22;42920;45.306;20.448;2022-08-19T01:20:32;666.50;1689.60
57030;DHT22;42920;45.306;20.448;2022-08-19T01:22:59;666.50;1689.60
57030;DHT22;42920;45.306;20.448;2022-08-19T01:25:32;691.20;1689.60
57030;DHT22;42920;45.306;20.448;2022-08-19T01:27:59;666.20;1715.20
57030;DHT22;42920;45.306;20.448;2022-08-19T01:30:28;666.20;1715.20
57030;DHT22;42920;45.306;20.448;2022-08-19T01:32:56;666.20;1715.20
57030;DHT22;42920;45.306;20.448;2022-08-19T01:35:24;666.20;1715.20
57030;DHT22;42920;45.306;20.448;2022-08-19T01:38:05;666.00;1740.80
57030;DHT22;42920;45.306;20.448;2022-08-19T01:40:34;665.90;1740.80
57030;DHT22;42920;45.306;20.448;2022-08-19T01:43:01;665.80;1766.40
57030;DHT22;42920;45.306;20.448;2022-08-19T01:45:29;665.70;1766.40
57030;DHT22;42920;45.306;20.448;2022-08-19T01:47:56;665.80;1766.40
57030;DHT22;42920;45.306;20.448;2022-08-19T01:50:22;665.90;1766.40
57030;DHT22;42920;45.306;20.448;2022-08-19T01:52:48;665.90;1766.40
57030;DHT22;42920;45.306;20.448;2022-08-19T01:55:16;665.90;1766.40
57030;DHT22;42920;45.306;20.448;2022-08-19T01:57:46;665.80;1766.40
57030;DHT22;42920;45.306;20.448;2022-08-19T02:00:18;665.80;1792.00
57030;DHT22;42920;45.306;20.448;2022-08-19T02:02:44;665.90;1766.40
57030;DHT22;42920;45.306;20.448;2022-08-19T02:05:11;665.90;1766.40
57030;DHT22;42920;45.306;20.448;2022-08-19T02:07:39;665.90;1766.40
57030;DHT22;42920;45.306;20.448;2022-08-19T02:10:07;665.90;1766.40
57030;DHT22;42920;45.306;20.448;2022-08-19T02:12:33;665.70;1792.00
57030;DHT22;42920;45.306;20.448;2022-08-19T02:14:59;665.60;1817.60
57030;DHT22;42920;45.306;20.448;2022-08-19T02:17:26;665.70;1792.00
57030;DHT22;42920;45.306;20.448;2022-08-19T02:19:54;665.60;1792.00
57030;DHT22;42920;45.306;20.448;2022-08-19T02:22:20;640.90;1792.00
57030;DHT22;42920;45.306;20.448;2022-08-19T02:24:46;640.80;1792.00
57030;DHT22;42920;45.306;20.448;2022-08-19T02:27:14;640.70;1792.00
57030;DHT22;42920;45.306;20.448;2022-08-19T02:29:40;640.50;1843.20
57030;DHT22;42920;45.306;20.448;2022-08-19T02:32:06;640.40;1843.20
57030;DHT22;42920;45.306;20.448;2022-08-19T02:34:33;640.60;1868.80
57030;DHT22;42920;45.306;20.448;2022-08-19T02:36:59;640.40;1868.80
57030;DHT22;42920;45.306;20.448;2022-08-19T02:39:25;640.40;1868.80
57030;DHT22;42920;45.306;20.448;2022-08-19T02:41:51;640.50;1843.20
57030;DHT22;42920;45.306;20.448;2022-08-19T02:44:17;640.50;1843.20
57030;DHT22;42920;45.306;20.448;2022-08-19T02:46:46;640.50;1843.20
57030;DHT22;42920;45.306;20.448;2022-08-19T02:49:12;640.60;1843.20
57030;DHT22;42920;45.306;20.448;2022-08-19T02:51:40;640.70;1843.20
57030;DHT22;42920;45.306;20.448;2022-08-19T02:54:08;640.70;1843.20
57030;DHT22;42920;45.306;20.448;2022-08-19T02:56:36;640.80;1817.60
57030;DHT22;42920;45.306;20.448;2022-08-19T02:59:02;640.80;1843.20
57030;DHT22;42920;45.306;20.448;2022-08-19T03:01:39;640.90;1817.60
57030;DHT22;42920;45.306;20.448;2022-08-19T03:04:08;665.70;1817.60
57030;DHT22;42920;45.306;20.448;2022-08-19T03:06:37;665.70;1817.60
57030;DHT22;42920;45.306;20.448;2022-08-19T03:09:03;665.70;1817.60
57030;DHT22;42920;45.306;20.448;2022-08-19T03:11:31;665.60;1843.20
57030;DHT22;42920;45.306;20.448;2022-08-19T03:14:02;640.90;1817.60
57030;DHT22;42920;45.306;20.448;2022-08-19T03:16:30;665.60;1868.80
57030;DHT22;42920;45.306;20.448;2022-08-19T03:18:57;665.60;1868.80
57030;DHT22;42920;45.306;20.448;2022-08-19T03:21:27;665.70;1843.20
57030;DHT22;42920;45.306;20.448;2022-08-19T03:23:55;665.80;1843.20
57030;DHT22;42920;45.306;20.448;2022-08-19T03:26:22;665.80;1843.20
57030;DHT22;42920;45.306;20.448;2022-08-19T03:28:48;665.90;1843.20
57030;DHT22;42920;45.306;20.448;2022-08-19T03:31:17;665.80;1843.20
57030;DHT22;42920;45.306;20.448;2022-08-19T03:33:43;665.70;1868.80
57030;DHT22;42920;45.306;20.448;2022-08-19T03:38:42;665.80;1868.80
57030;DHT22;42920;45.306;20.448;2022-08-19T03:41:13;665.90;1868.80
57030;DHT22;42920;45.306;20.448;2022-08-19T03:43:40;666.00;1868.80
57030;DHT22;42920;45.306;20.448;2022-08-19T03:46:12;665.70;1894.40
57030;DHT22;42920;45.306;20.448;2022-08-19T03:48:40;665.80;1894.40
57030;DHT22;42920;45.306;20.448;2022-08-19T03:51:07;665.70;1894.40
57030;DHT22;42920;45.306;20.448;2022-08-19T03:53:35;665.60;1920.00
57030;DHT22;42920;45.306;20.448;2022-08-19T03:56:01;640.60;1920.00
57030;DHT22;42920;45.306;20.448;2022-08-19T03:58:29;640.90;1920.00
57030;DHT22;42920;45.306;20.448;2022-08-19T04:00:57;640.90;1920.00
57030;DHT22;42920;45.306;20.448;2022-08-19T04:03:24;640.90;1945.60
57030;DHT22;42920;45.306;20.448;2022-08-19T04:05:51;640.90;1945.60
57030;DHT22;42920;45.306;20.448;2022-08-19T04:08:18;665.60;1971.20
57030;DHT22;42920;45.306;20.448;2022-08-19T04:10:47;640.90;1945.60
57030;DHT22;42920;45.306;20.448;2022-08-19T04:13:15;640.90;1945.60
57030;DHT22;42920;45.306;20.448;2022-08-19T04:15:43;640.90;1945.60
57030;DHT22;42920;45.306;20.448;2022-08-19T04:18:09;640.90;1945.60
57030;DHT22;42920;45.306;20.448;2022-08-19T04:20:43;665.60;1971.20
57030;DHT22;42920;45.306;20.448;2022-08-19T04:23:09;665.60;1945.60
57030;DHT22;42920;45.306;20.448;2022-08-19T04:25:39;640.70;1945.60
57030;DHT22;42920;45.306;20.448;2022-08-19T04:28:07;640.80;1945.60
57030;DHT22;42920;45.306;20.448;2022-08-19T04:30:44;640.80;1945.60
57030;DHT22;42920;45.306;20.448;2022-08-19T04:33:13;640.70;1971.20
57030;DHT22;42920;45.306;20.448;2022-08-19T04:35:47;640.70;1971.20
57030;DHT22;42920;45.306;20.448;2022-08-19T04:38:14;640.70;1971.20
57030;DHT22;42920;45.306;20.448;2022-08-19T04:40:44;640.70;1971.20
57030;DHT22;42920;45.306;20.448;2022-08-19T04:43:35;640.70;1971.20
57030;DHT22;42920;45.306;20.448;2022-08-19T04:46:09;665.60;1996.80
57030;DHT22;42920;45.306;20.448;2022-08-19T04:48:36;665.60;1996.80
57030;DHT22;42920;45.306;20.448;2022-08-19T04:51:07;665.60;1996.80
57030;DHT22;42920;45.306;20.448;2022-08-19T04:53:36;665.60;1996.80
57030;DHT22;42920;45.306;20.448;2022-08-19T04:56:09;665.70;1996.80
57030;DHT22;42920;45.306;20.448;2022-08-19T04:58:35;665.80;1971.20
57030;DHT22;42920;45.306;20.448;2022-08-19T05:01:01;666.00;1996.80
57030;DHT22;42920;45.306;20.448;2022-08-19T05:03:28;666.00;1996.80
57030;DHT22;42920;45.306;20.448;2022-08-19T05:06:11;666.10;1971.20
57030;DHT22;42920;45.306;20.448;2022-08-19T05:08:40;666.20;1996.80
57030;DHT22;42920;45.306;20.448;2022-08-19T05:11:15;666.20;1971.20
57030;DHT22;42920;45.306;20.448;2022-08-19T05:13:46;666.30;1996.80
57030;DHT22;42920;45.306;20.448;2022-08-19T05:16:15;666.40;1971.20
57030;DHT22;42920;45.306;20.448;2022-08-19T05:18:41;666.40;1971.20
57030;DHT22;42920;45.306;20.448;2022-08-19T05:21:26;666.50;1971.20
57030;DHT22;42920;45.306;20.448;2022-08-19T05:24:11;666.50;1945.60
57030;DHT22;42920;45.306;20.448;2022-08-19T05:26:40;691.20;1945.60
57030;DHT22;42920;45.306;20.448;2022-08-19T05:29:07;691.30;1945.60
57030;DHT22;42920;45.306;20.448;2022-08-19T05:31:35;691.40;1920.00
57030;DHT22;42920;45.306;20.448;2022-08-19T05:34:01;691.40;1894.40
57030;DHT22;42920;45.306;20.448;2022-08-19T05:36:34;691.40;1894.40
57030;DHT22;42920;45.306;20.448;2022-08-19T05:39:00;691.40;1894.40
57030;DHT22;42920;45.306;20.448;2022-08-19T05:41:26;691.50;1868.80
57030;DHT22;42920;45.306;20.448;2022-08-19T05:44:01;691.60;1868.80
57030;DHT22;42920;45.306;20.448;2022-08-19T05:46:27;691.70;1868.80
57030;DHT22;42920;45.306;20.448;2022-08-19T05:48:53;691.80;1843.20
57030;DHT22;42920;45.306;20.448;2022-08-19T05:51:22;691.90;1843.20
57030;DHT22;42920;45.306;20.448;2022-08-19T05:53:48;692.10;1817.60
57030;DHT22;42920;45.306;20.448;2022-08-19T05:56:15;692.10;1817.60
57030;DHT22;42920;45.306;20.448;2022-08-19T05:58:42;716.80;1817.60
57030;DHT22;42920;45.306;20.448;2022-08-19T06:01:13;716.80;1817.60
57030;DHT22;42920;45.306;20.448;2022-08-19T06:03:40;717.00;1817.60
57030;DHT22;42920;45.306;20.448;2022-08-19T06:06:06;717.10;1817.60
57030;DHT22;42920;45.306;20.448;2022-08-19T06:08:33;717.20;1766.40
57030;DHT22;42920;45.306;20.448;2022-08-19T06:11:24;717.20;1766.40
57030;DHT22;42920;45.306;20.448;2022-08-19T06:13:52;717.30;1766.40
57030;DHT22;42920;45.306;20.448;2022-08-19T06:16:20;717.50;1766.40
57030;DHT22;42920;45.306;20.448;2022-08-19T06:18:52;717.70;1740.80
57030;DHT22;42920;45.306;20.448;2022-08-19T06:21:23;742.40;1740.80
57030;DHT22;42920;45.306;20.448;2022-08-19T06:23:49;742.40;1715.20
57030;DHT22;42920;45.306;20.448;2022-08-19T06:26:17;717.70;1689.60
57030;DHT22;42920;45.306;20.448;2022-08-19T06:28:45;742.80;1689.60
57030;DHT22;42920;45.306;20.448;2022-08-19T06:31:16;742.80;1689.60
57030;DHT22;42920;45.306;20.448;2022-08-19T06:33:46;742.90;1638.40
57030;DHT22;42920;45.306;20.448;2022-08-19T06:36:20;743.10;1638.40
57030;DHT22;42920;45.306;20.448;2022-08-19T06:38:46;743.20;1587.20
57030;DHT22;42920;45.306;20.448;2022-08-19T06:41:12;768.10;1612.80
57030;DHT22;42920;45.306;20.448;2022-08-19T06:43:38;768.20;1587.20
57030;DHT22;42920;45.306;20.448;2022-08-19T06:46:10;768.40;1561.60
57030;DHT22;42920;45.306;20.448;2022-08-19T06:48:37;768.60;1561.60
57030;DHT22;42920;45.306;20.448;2022-08-19T06:51:03;768.70;1536.00
57030;DHT22;42920;45.306;20.448;2022-08-19T06:53:31;768.80;1510.40
57030;DHT22;42920;45.306;20.448;2022-08-19T06:55:57;793.60;1536.00
57030;DHT22;42920;45.306;20.448;2022-08-19T06:58:28;793.70;1510.40
57030;DHT22;42920;45.306;20.448;2022-08-19T07:00:59;793.90;1484.80
57030;DHT22;42920;45.306;20.448;2022-08-19T07:03:27;794.10;1484.80
57030;DHT22;42920;45.306;20.448;2022-08-19T07:05:53;794.30;1459.20
57030;DHT22;42920;45.306;20.448;2022-08-19T07:08:19;794.40;1459.20
57030;DHT22;42920;45.306;20.448;2022-08-19T07:10:45;819.20;1408.00
57030;DHT22;42920;45.306;20.448;2022-08-19T07:13:12;819.30;1408.00
57030;DHT22;42920;45.306;20.448;2022-08-19T07:15:37;819.40;1382.40
57030;DHT22;42920;45.306;20.448;2022-08-19T07:18:03;819.50;1382.40
57030;DHT22;42920;45.306;20.448;2022-08-19T07:20:29;819.60;1382.40
57030;DHT22;42920;45.306;20.448;2022-08-19T07:22:55;819.80;1382.40
57030;DHT22;42920;45.306;20.448;2022-08-19T07:25:20;819.80;1356.80
57030;DHT22;42920;45.306;20.448;2022-08-19T07:27:49;819.90;1331.20
57030;DHT22;42920;45.306;20.448;2022-08-19T07:30:16;820.10;1331.20
57030;DHT22;42920;45.306;20.448;2022-08-19T07:32:42;844.80;1356.80
57030;DHT22;42920;45.306;20.448;2022-08-19T07:35:08;844.90;1331.20
57030;DHT22;42920;45.306;20.448;2022-08-19T07:37:35;845.00;1331.20
57030;DHT22;42920;45.306;20.448;2022-08-19T07:40:04;845.10;1305.60
57030;DHT22;42920;45.306;20.448;2022-08-19T07:42:31;845.20;1305.60
57030;DHT22;42920;45.306;20.448;2022-08-19T07:44:58;845.30;1305.60
57030;DHT22;42920;45.306;20.448;2022-08-19T07:47:23;845.30;1305.60
57030;DHT22;42920;45.306;20.448;2022-08-19T07:49:49;845.40;1280.00
57030;DHT22;42920;45.306;20.448;2022-08-19T07:52:15;845.40;1280.00
57030;DHT22;42920;45.306;20.448;2022-08-19T07:54:42;845.50;1280.00
57030;DHT22;42920;45.306;20.448;2022-08-19T07:57:08;845.60;1280.00
57030;DHT22;42920;45.306;20.448;2022-08-19T07:59:35;845.50;1254.40
57030;DHT22;42920;45.306;20.448;2022-08-19T08:02:02;870.50;1228.80
57030;DHT22;42920;45.306;20.448;2022-08-19T08:04:29;870.50;1228.80
57030;DHT22;42920;45.306;20.448;2022-08-19T08:07:14;870.60;1228.80
57030;DHT22;42920;45.306;20.448;2022-08-19T08:09:59;870.70;1203.20
57030;DHT22;42920;45.306;20.448;2022-08-19T08:12:29;870.90;1203.20
57030;DHT22;42920;45.306;20.448;2022-08-19T08:14:59;870.90;1203.20
57030;DHT22;42920;45.306;20.448;2022-08-19T08:17:28;871.00;1203.20
57030;DHT22;42920;45.306;20.448;2022-08-19T08:19:55;871.10;1177.60
57030;DHT22;42920;45.306;20.448;2022-08-19T08:22:23;871.10;1203.20
57030;DHT22;42920;45.306;20.448;2022-08-19T08:25:17;871.30;1177.60
57030;DHT22;42920;45.306;20.448;2022-08-19T08:27:45;896.00;1152.00
57030;DHT22;42920;45.306;20.448;2022-08-19T08:30:14;896.00;1177.60
57030;DHT22;42920;45.306;20.448;2022-08-19T08:32:41;896.10;1152.00
57030;DHT22;42920;45.306;20.448;2022-08-19T08:35:09;896.20;1152.00
57030;DHT22;42920;45.306;20.448;2022-08-19T08:37:36;896.20;1126.40
57030;DHT22;42920;45.306;20.448;2022-08-19T08:40:07;896.30;1152.00
57030;DHT22;42920;45.306;20.448;2022-08-19T08:42:39;896.30;1126.40
57030;DHT22;42920;45.306;20.448;2022-08-19T08:45:13;896.50;1126.40
57030;DHT22;42920;45.306;20.448;2022-08-19T08:47:44;896.60;1126.40
57030;DHT22;42920;45.306;20.448;2022-08-19T08:52:51;896.70;1100.80
57030;DHT22;42920;45.306;20.448;2022-08-19T08:55:22;896.90;1100.80
57030;DHT22;42920;45.306;20.448;2022-08-19T08:57:52;896.90;1075.20
57030;DHT22;42920;45.306;20.448;2022-08-19T09:00:27;896.90;1075.20
57030;DHT22;42920;45.306;20.448;2022-08-19T09:02:55;921.70;1100.80
57030;DHT22;42920;45.306;20.448;2022-08-19T09:05:23;921.70;1100.80
57030;DHT22;42920;45.306;20.448;2022-08-19T09:10:50;921.70;1100.80
57030;DHT22;42920;45.306;20.448;2022-08-19T09:16:20;922.00;1075.20
57030;DHT22;42920;45.306;20.448;2022-08-19T09:18:49;922.00;1075.20
57030;DHT22;42920;45.306;20.448;2022-08-19T09:21:19;922.30;1075.20
57030;DHT22;42920;45.306;20.448;2022-08-19T09:23:45;922.30;1075.20
57030;DHT22;42920;45.306;20.448;2022-08-19T09:26:15;922.40;1049.60
57030;DHT22;42920;45.306;20.448;2022-08-19T09:28:43;947.40;1024.00
57030;DHT22;42920;45.306;20.448;2022-08-19T09:31:21;948.10;998.40
57030;DHT22;42920;45.306;20.448;2022-08-19T09:33:48;973.40;972.80
57030;DHT22;42920;45.306;20.448;2022-08-19T09:36:16;998.70;972.80
57030;DHT22;42920;45.306;20.448;2022-08-19T09:38:42;999.20;947.20
57030;DHT22;42920;45.306;20.448;2022-08-19T09:41:14;999.00;947.20
57030;DHT22;42920;45.306;20.448;2022-08-19T09:43:41;998.80;921.60
57030;DHT22;42920;45.306;20.448;2022-08-19T09:46:09;998.90;921.60
57030;DHT22;42920;45.306;20.448;2022-08-19T09:48:39;999.30;921.60
57030;DHT22;42920;45.306;20.448;2022-08-19T09:51:11;1024.20;921.60
57030;DHT22;42920;45.306;20.448;2022-08-19T09:53:42;1024.20;921.60
57030;DHT22;42920;45.306;20.448;2022-08-19T09:56:09;1024.40;947.20
57030;DHT22;42920;45.306;20.448;2022-08-19T09:58:35;1024.40;947.20
57030;DHT22;42920;45.306;20.448;2022-08-19T10:01:03;1024.60;921.60
57030;DHT22;42920;45.306;20.448;2022-08-19T10:03:30;1024.40;947.20
57030;DHT22;42920;45.306;20.448;2022-08-19T10:06:02;1024.60;947.20
57030;DHT22;42920;45.306;20.448;2022-08-19T10:08:33;1050.00;947.20
57030;DHT22;42920;45.306;20.448;2022-08-19T10:13:29;1049.80;921.60
57030;DHT22;42920;45.306;20.448;2022-08-19T10:15:56;1049.70;921.60
57030;DHT22;42920;45.306;20.448;2022-08-19T10:18:24;1050.00;921.60
57030;DHT22;42920;45.306;20.448;2022-08-19T10:20:51;1050.00;921.60
57030;DHT22;42920;45.306;20.448;2022-08-19T10:23:19;1049.80;921.60
57030;DHT22;42920;45.306;20.448;2022-08-19T10:25:45;1050.00;921.60
57030;DHT22;42920;45.306;20.448;2022-08-19T10:28:11;1050.20;896.00
57030;DHT22;42920;45.306;20.448;2022-08-19T10:30:40;1049.80;921.60
57030;DHT22;42920;45.306;20.448;2022-08-19T10:33:06;1050.10;896.00
57030;DHT22;42920;45.306;20.448;2022-08-19T10:35:32;1050.00;921.60
57030;DHT22;42920;45.306;20.448;2022-08-19T10:37:59;1050.20;921.60
57030;DHT22;42920;45.306;20.448;2022-08-19T10:40:27;1050.10;896.00
57030;DHT22;42920;45.306;20.448;2022-08-19T10:42:54;1050.20;921.60
57030;DHT22;42920;45.306;20.448;2022-08-19T10:45:21;1050.40;896.00
57030;DHT22;42920;45.306;20.448;2022-08-19T10:47:48;1075.50;870.40
57030;DHT22;42920;45.306;20.448;2022-08-19T10:50:14;1075.50;870.40
57030;DHT22;42920;45.306;20.448;2022-08-19T10:53:04;1075.50;870.40
57030;DHT22;42920;45.306;20.448;2022-08-19T10:55:30;1075.50;870.40
57030;DHT22;42920;45.306;20.448;2022-08-19T10:58:16;1075.30;844.80
57030;DHT22;42920;45.306;20.448;2022-08-19T11:00:46;1050.50;870.40
57030;DHT22;42920;45.306;20.448;2022-08-19T11:03:16;1075.50;844.80
57030;DHT22;42920;45.306;20.448;2022-08-19T11:05:41;1075.20;844.80
57030;DHT22;42920;45.306;20.448;2022-08-19T11:08:08;1075.20;870.40
57030;DHT22;42920;45.306;20.448;2022-08-19T11:10:41;1075.30;870.40
57030;DHT22;42920;45.306;20.448;2022-08-19T11:13:07;1075.80;844.80
57030;DHT22;42920;45.306;20.448;2022-08-19T11:15:33;1075.80;844.80
57030;DHT22;42920;45.306;20.448;2022-08-19T11:17:59;1075.50;844.80
57030;DHT22;42920;45.306;20.448;2022-08-19T11:20:25;1075.80;844.80
57030;DHT22;42920;45.306;20.448;2022-08-19T11:22:52;1075.50;870.40
57030;DHT22;42920;45.306;20.448;2022-08-19T11:25:18;1100.90;870.40
57030;DHT22;42920;45.306;20.448;2022-08-19T11:27:44;1100.80;870.40
57030;DHT22;42920;45.306;20.448;2022-08-19T11:30:12;1075.80;844.80
57030;DHT22;42920;45.306;20.448;2022-08-19T11:32:39;1075.40;844.80
57030;DHT22;42920;45.306;20.448;2022-08-19T11:35:05;1075.40;870.40
57030;DHT22;42920;45.306;20.448;2022-08-19T11:37:31;1075.40;844.80
57030;DHT22;42920;45.306;20.448;2022-08-19T11:40:04;1075.90;819.20
57030;DHT22;42920;45.306;20.448;2022-08-19T11:42:30;1100.90;844.80
57030;DHT22;42920;45.306;20.448;2022-08-19T11:45:15;1100.80;870.40
57030;DHT22;42920;45.306;20.448;2022-08-19T11:47:40;1075.80;844.80
57030;DHT22;42920;45.306;20.448;2022-08-19T11:50:06;1100.80;844.80
57030;DHT22;42920;45.306;20.448;2022-08-19T11:52:32;1100.80;844.80
57030;DHT22;42920;45.306;20.448;2022-08-19T11:54:58;1075.90;844.80
57030;DHT22;42920;45.306;20.448;2022-08-19T11:57:24;1100.90;844.80
57030;DHT22;42920;45.306;20.448;2022-08-19T11:59:51;1101.20;844.80
57030;DHT22;42920;45.306;20.448;2022-08-19T12:02:18;1101.20;819.20
57030;DHT22;42920;45.306;20.448;2022-08-19T12:04:44;1101.20;844.80
57030;DHT22;42920;45.306;20.448;2022-08-19T12:07:10;1101.20;844.80
57030;DHT22;42920;45.306;20.448;2022-08-19T12:09:36;1101.30;819.20
57030;DHT22;42920;45.306;20.448;2022-08-19T12:12:02;1101.30;819.20
57030;DHT22;42920;45.306;20.448;2022-08-19T12:14:28;1101.50;819.20
57030;DHT22;42920;45.306;20.448;2022-08-19T12:16:56;1101.50;819.20
57030;DHT22;42920;45.306;20.448;2022-08-19T12:19:22;1101.60;819.20
57030;DHT22;42920;45.306;20.448;2022-08-19T12:21:48;1126.50;819.20
57030;DHT22;42920;45.306;20.448;2022-08-19T12:24:15;1126.40;819.20
57030;DHT22;42920;45.306;20.448;2022-08-19T12:26:41;1126.40;819.20
57030;DHT22;42920;45.306;20.448;2022-08-19T12:29:07;1101.30;793.60
57030;DHT22;42920;45.306;20.448;2022-08-19T12:31:33;1101.40;819.20
57030;DHT22;42920;45.306;20.448;2022-08-19T12:33:59;1101.60;819.20
57030;DHT22;42920;45.306;20.448;2022-08-19T12:36:27;1126.50;844.80
57030;DHT22;42920;45.306;20.448;2022-08-19T12:38:53;1101.60;793.60
57030;DHT22;42920;45.306;20.448;2022-08-19T12:41:20;1126.40;819.20
57030;DHT22;42920;45.306;20.448;2022-08-19T12:43:48;1101.30;793.60
57030;DHT22;42920;45.306;20.448;2022-08-19T12:46:15;1101.40;793.60
57030;DHT22;42920;45.306;20.448;2022-08-19T12:48:41;1126.40;819.20
57030;DHT22;42920;45.306;20.448;2022-08-19T12:51:09;1126.50;819.20
57030;DHT22;42920;45.306;20.448;2022-08-19T12:53:35;1126.80;793.60
57030;DHT22;42920;45.306;20.448;2022-08-19T12:56:01;1126.40;819.20
57030;DHT22;42920;45.306;20.448;2022-08-19T12:58:30;1126.40;819.20
57030;DHT22;42920;45.306;20.448;2022-08-19T13:01:05;1126.60;819.20
57030;DHT22;42920;45.306;20.448;2022-08-19T13:03:31;1126.80;793.60
57030;DHT22;42920;45.306;20.448;2022-08-19T13:05:57;1126.70;793.60
57030;DHT22;42920;45.306;20.448;2022-08-19T13:08:22;1126.70;793.60
57030;DHT22;42920;45.306;20.448;2022-08-19T13:10:48;1101.60;793.60
57030;DHT22;42920;45.306;20.448;2022-08-19T13:13:14;1101.60;819.20
57030;DHT22;42920;45.306;20.448;2022-08-19T13:15:41;1126.50;819.20
57030;DHT22;42920;45.306;20.448;2022-08-19T13:18:09;1101.60;819.20
57030;DHT22;42920;45.306;20.448;2022-08-19T13:20:37;1126.70;844.80
57030;DHT22;42920;45.306;20.448;2022-08-19T13:23:06;1127.10;819.20
57030;DHT22;42920;45.306;20.448;2022-08-19T13:25:33;1126.80;819.20
57030;DHT22;42920;45.306;20.448;2022-08-19T13:27:59;1126.90;819.20
57030;DHT22;42920;45.306;20.448;2022-08-19T13:30:27;1126.60;819.20
57030;DHT22;42920;45.306;20.448;2022-08-19T13:33:11;1101.60;819.20
57030;DHT22;42920;45.306;20.448;2022-08-19T13:35:43;1101.30;819.20
57030;DHT22;42920;45.306;20.448;2022-08-19T13:38:10;1101.10;819.20
57030;DHT22;42920;45.306;20.448;2022-08-19T13:40:36;1100.90;844.80
57030;DHT22;42920;45.306;20.448;2022-08-19T13:43:04;1076.10;819.20
57030;DHT22;42920;45.306;20.448;2022-08-19T13:45:31;1076.10;844.80
57030;DHT22;42920;45.306;20.448;2022-08-19T13:48:03;1075.80;844.80
57030;DHT22;42920;45.306;20.448;2022-08-19T13:50:50;1075.60;844.80
57030;DHT22;42920;45.306;20.448;2022-08-19T13:53:16;1075.50;844.80
57030;DHT22;42920;45.306;20.448;2022-08-19T13:55:43;1075.60;819.20
57030;DHT22;42920;45.306;20.448;2022-08-19T13:58:10;1075.60;844.80
57030;DHT22;42920;45.306;20.448;2022-08-19T14:00:41;1075.80;819.20
57030;DHT22;42920;45.306;20.448;2022-08-19T14:03:07;1101.10;819.20
57030;DHT22;42920;45.306;20.448;2022-08-19T14:05:33;1101.20;819.20
57030;DHT22;42920;45.306;20.448;2022-08-19T14:07:59;1101.30;819.20
57030;DHT22;42920;45.306;20.448;2022-08-19T14:10:26;1101.50;819.20
57030;DHT22;42920;45.306;20.448;2022-08-19T14:12:57;1126.40;819.20
57030;DHT22;42920;45.306;20.448;2022-08-19T14:15:24;1126.50;819.20
57030;DHT22;42920;45.306;20.448;2022-08-19T14:17:49;1126.40;819.20
57030;DHT22;42920;45.306;20.448;2022-08-19T14:20:16;1126.50;819.20
57030;DHT22;42920;45.306;20.448;2022-08-19T14:22:43;1126.70;793.60
57030;DHT22;42920;45.306;20.448;2022-08-19T14:25:12;1126.40;819.20
57030;DHT22;42920;45.306;20.448;2022-08-19T14:27:40;1126.40;819.20
57030;DHT22;42920;45.306;20.448;2022-08-19T14:30:08;1126.50;819.20
57030;DHT22;42920;45.306;20.448;2022-08-19T14:32:35;1126.70;819.20
57030;DHT22;42920;45.306;20.448;2022-08-19T14:35:02;1126.40;819.20
57030;DHT22;42920;45.306;20.448;2022-08-19T14:37:28;1101.70;819.20
57030;DHT22;42920;45.306;20.448;2022-08-19T14:39:54;1101.60;819.20
57030;DHT22;42920;45.306;20.448;2022-08-19T14:42:19;1126.40;844.80
57030;DHT22;42920;45.306;20.448;2022-08-19T14:44:45;1101.60;819.20
57030;DHT22;42920;45.306;20.448;2022-08-19T14:47:12;1101.20;793.60
57030;DHT22;42920;45.306;20.448;2022-08-19T14:49:38;1101.60;793.60
57030;DHT22;42920;45.306;20.448;2022-08-19T14:52:05;1101.10;819.20
57030;DHT22;42920;45.306;20.448;2022-08-19T14:54:31;1101.00;819.20
57030;DHT22;42920;45.306;20.448;2022-08-19T14:56:57;1101.30;819.20